Homestead, Florida
Current Conditions -  °F | °C
As of 6:58 PM on Tuesday 25 Nov 2014 (Local Time) from KHST Reporting Station
Clear Clear  
Wind Chill: 78°   Ceiling: Unl
Heat Index: 79°   Visibility: 10mi
Dew Point: 74°   Wind: 2mph
Humidity: 90%   Direction: 170°S
Pressure: 29.97"   Gusts: NA
Location:  25.48°N, 80.46°W
Report Text: KHST 252358Z AUTO 17002KT 10SM CLR 25/24 A2997 RMK AO2 DZB2327E2337 SLP152 P0000 60000 T02530236 10296 20253 52017
Loading
Personal Weather Stations






























Interactive Weather Map New forecast layout! Learn more

10-Day Weather Forecast

Advertisements
Track Severe Weather on mobile